Time;durP1;ratioP1;P1;durP2;ratioP2;P2;SDS_P1;SDS_P2;PMS_P1;PMS_P2;Temp;Humidity;BMP_temperature;BMP_pressure;BME280_temperature;BME280_humidity;BME280_pressure;Samples;Min_cycle;Max_cycle;Signal;HPM_P1;HPM_P2
2021/07/24 00:01:44;;;;;;;9.10;7.77;;;18.70;99.90;;;;;;5014397;28;20453;-65
2021/07/24 00:04:11;;;;;;;10.37;8.50;;;18.60;99.90;;;;;;5015749;28;20434;-65
2021/07/24 00:06:36;;;;;;;9.83;7.87;;;18.60;99.90;;;;;;5034588;28;20176;-66
2021/07/24 00:09:04;;;;;;;10.63;9.53;;;18.60;99.90;;;;;;5035296;28;20449;-66
2021/07/24 00:11:32;;;;;;;11.00;8.77;;;18.60;99.90;;;;;;5035379;28;20185;-66
2021/07/24 00:13:58;;;;;;;10.00;8.37;;;18.60;99.90;;;;;;5035260;28;20767;-66
2021/07/24 00:16:23;;;;;;;8.73;7.83;;;18.60;99.90;;;;;;5035134;28;20413;-65
2021/07/24 00:18:49;;;;;;;10.47;8.83;;;18.60;99.90;;;;;;5033102;28;20478;-65
2021/07/24 00:21:15;;;;;;;9.27;7.80;;;18.50;99.90;;;;;;5015364;28;20188;-65
2021/07/24 00:23:41;;;;;;;7.97;6.93;;;18.50;99.90;;;;;;5015014;28;20261;-65
2021/07/24 00:26:06;;;;;;;10.57;8.80;;;18.50;99.90;;;;;;5017145;28;20171;-65
2021/07/24 00:28:32;;;;;;;12.77;9.30;;;18.50;99.90;;;;;;5034344;28;20194;-65
2021/07/24 00:30:57;;;;;;;10.53;7.80;;;18.50;99.90;;;;;;5034749;28;20181;-65
2021/07/24 00:33:23;;;;;;;11.40;7.30;;;18.50;99.90;;;;;;5034870;28;20647;-65
2021/07/24 00:35:49;;;;;;;11.10;8.47;;;18.40;99.90;;;;;;5034549;28;20170;-65
2021/07/24 00:38:15;;;;;;;10.60;7.93;;;18.40;99.90;;;;;;5034028;28;20193;-65
2021/07/24 00:40:43;;;;;;;10.50;6.87;;;18.40;99.90;;;;;;5034040;28;20210;-65
2021/07/24 00:43:10;;;;;;;7.97;7.17;;;18.30;99.90;;;;;;5034547;28;20164;-65
2021/07/24 00:45:48;;;;;;;7.17;6.30;;;18.40;99.90;;;;;;5034513;28;21010;-64
2021/07/24 00:48:23;;;;;;;10.30;8.40;;;18.30;99.90;;;;;;5034081;28;20422;-64
2021/07/24 00:50:51;;;;;;;11.53;8.73;;;18.30;99.90;;;;;;5033233;28;20468;-65
2021/07/24 00:53:24;;;;;;;10.57;7.70;;;18.30;99.90;;;;;;5034450;28;20800;-65
2021/07/24 00:55:51;;;;;;;10.63;8.40;;;18.30;99.90;;;;;;5034104;28;20431;-66
2021/07/24 00:58:29;;;;;;;8.70;7.27;;;18.30;99.90;;;;;;5033772;28;20423;-65
2021/07/24 01:00:55;;;;;;;11.80;8.70;;;18.30;99.90;;;;;;5032972;28;20456;-66
2021/07/24 01:03:21;;;;;;;8.77;7.10;;;18.30;99.90;;;;;;5034347;28;20408;-66
2021/07/24 01:05:51;;;;;;;9.33;8.43;;;18.30;99.90;;;;;;5034230;28;20797;-66
2021/07/24 01:08:18;;;;;;;9.00;6.70;;;18.30;99.90;;;;;;5033596;28;20469;-65
2021/07/24 01:10:44;;;;;;;9.33;7.30;;;18.30;99.90;;;;;;5028556;28;20775;-65
2021/07/24 01:13:10;;;;;;;8.30;7.40;;;18.20;99.90;;;;;;5014249;28;20777;-65
2021/07/24 01:15:35;;;;;;;8.23;7.27;;;18.20;99.90;;;;;;5014129;28;20414;-65
2021/07/24 01:18:01;;;;;;;10.03;8.70;;;18.20;99.90;;;;;;5012437;28;20281;-65
2021/07/24 01:20:28;;;;;;;11.43;8.67;;;18.20;99.90;;;;;;5015081;28;20412;-65
2021/07/24 01:22:55;;;;;;;8.40;7.43;;;18.20;99.90;;;;;;5014258;28;20168;-65
2021/07/24 01:25:21;;;;;;;8.47;6.63;;;18.20;99.90;;;;;;5014128;28;20505;-65
2021/07/24 01:27:47;;;;;;;9.73;8.17;;;18.30;99.90;;;;;;5013522;28;21023;-65
2021/07/24 01:30:13;;;;;;;10.57;8.83;;;18.30;99.90;;;;;;5013546;28;20559;-64
2021/07/24 01:32:39;;;;;;;10.40;8.37;;;18.30;99.90;;;;;;5013869;28;20173;-64
2021/07/24 01:35:05;;;;;;;7.73;6.93;;;18.20;99.90;;;;;;5013632;28;20448;-65
2021/07/24 01:37:31;;;;;;;8.30;6.07;;;18.20;99.90;;;;;;5013168;28;20545;-65
2021/07/24 01:39:56;;;;;;;8.77;6.77;;;18.10;99.90;;;;;;5013600;28;20465;-64
2021/07/24 01:42:22;;;;;;;8.70;7.70;;;18.00;99.90;;;;;;5013915;28;20168;-65
2021/07/24 01:44:48;;;;;;;11.60;8.00;;;18.00;99.90;;;;;;5013720;28;20171;-65
2021/07/24 01:47:13;;;;;;;8.53;6.83;;;17.90;99.90;;;;;;5013291;28;20555;-65
2021/07/24 01:52:48;;;;;;;9.47;8.03;;;17.80;99.90;;;;;;5033600;28;20318;-65
2021/07/24 01:55:47;;;;;;;9.37;8.07;;;17.80;99.90;;;;;;5033508;28;20809;-65
2021/07/24 01:58:16;;;;;;;9.27;7.23;;;17.80;99.90;;;;;;5032693;28;20444;-65
2021/07/24 02:00:44;;;;;;;9.63;8.73;;;17.70;99.90;;;;;;5033271;28;20441;-65
2021/07/24 02:03:13;;;;;;;9.30;8.07;;;17.70;99.90;;;;;;5033015;28;20425;-65
2021/07/24 02:05:49;;;;;;;8.47;7.57;;;17.80;99.90;;;;;;5013627;28;20430;-65
2021/07/24 02:08:23;;;;;;;9.80;6.67;;;17.80;99.90;;;;;;5012801;28;20460;-65
2021/07/24 02:10:50;;;;;;;12.53;7.67;;;17.80;99.90;;;;;;5011971;28;20745;-65
2021/07/24 02:13:18;;;;;;;10.50;8.00;;;17.70;99.90;;;;;;5013346;28;20413;-65
2021/07/24 02:15:43;;;;;;;8.93;7.90;;;17.70;99.90;;;;;;5013426;28;20406;-65
2021/07/24 02:18:14;;;;;;;11.17;8.20;;;17.70;99.90;;;;;;5012987;28;20440;-66
2021/07/24 02:20:44;;;;;;;9.47;8.53;;;17.70;99.90;;;;;;5012537;28;20688;-65
2021/07/24 02:23:09;;;;;;;10.40;8.20;;;17.70;99.90;;;;;;5013029;28;20434;-65
2021/07/24 02:25:35;;;;;;;8.17;7.37;;;17.80;99.90;;;;;;5013093;28;20504;-65
2021/07/24 02:28:01;;;;;;;9.60;7.80;;;17.80;99.90;;;;;;5012629;28;20191;-65
2021/07/24 02:30:26;;;;;;;8.63;7.73;;;17.80;99.90;;;;;;5013040;28;20291;-65
2021/07/24 02:32:52;;;;;;;8.37;7.47;;;17.80;99.90;;;;;;5013266;28;20202;-65
2021/07/24 02:35:18;;;;;;;8.60;7.10;;;17.90;99.90;;;;;;5032933;28;20684;-66
2021/07/24 02:37:43;;;;;;;9.50;7.60;;;17.90;99.90;;;;;;5032522;28;20185;-65
2021/07/24 02:40:09;;;;;;;9.77;7.90;;;17.90;99.90;;;;;;5033003;28;20286;-65
2021/07/24 02:42:35;;;;;;;10.13;9.07;;;17.90;99.90;;;;;;5034846;28;20237;-65
2021/07/24 02:45:01;;;;;;;9.37;7.70;;;17.90;99.90;;;;;;5036713;28;20889;-65
2021/07/24 02:47:26;;;;;;;8.80;7.43;;;17.90;99.90;;;;;;5036216;28;20250;-65
2021/07/24 02:49:52;;;;;;;8.53;7.70;;;17.90;99.90;;;;;;5016738;28;20183;-65
2021/07/24 02:52:18;;;;;;;9.33;8.30;;;18.00;99.90;;;;;;5017195;28;20213;-65
2021/07/24 02:54:43;;;;;;;10.13;7.07;;;18.10;99.90;;;;;;5017062;28;20189;-64
2021/07/24 02:57:09;;;;;;;7.23;6.60;;;18.20;99.90;;;;;;5015301;28;20677;-65
2021/07/24 02:59:34;;;;;;;9.30;7.37;;;18.20;99.90;;;;;;5016768;28;20207;-65
2021/07/24 03:02:00;;;;;;;10.87;8.77;;;18.20;99.90;;;;;;5016613;28;20171;-64
2021/07/24 03:04:26;;;;;;;10.10;8.20;;;18.20;99.90;;;;;;5033676;28;20196;-65
2021/07/24 03:06:52;;;;;;;10.30;9.30;;;18.10;99.90;;;;;;5036332;28;20244;-65
2021/07/24 03:09:17;;;;;;;8.10;7.10;;;18.10;99.90;;;;;;5036918;28;20273;-65
2021/07/24 03:11:43;;;;;;;10.10;9.00;;;18.10;99.90;;;;;;5036708;28;20471;-65
2021/07/24 03:14:09;;;;;;;9.57;8.60;;;18.10;99.90;;;;;;5036233;28;20573;-65
2021/07/24 03:16:35;;;;;;;9.83;8.10;;;18.10;99.90;;;;;;5016580;28;20471;-66
2021/07/24 03:19:01;;;;;;;9.90;7.33;;;18.10;99.90;;;;;;5036266;28;20437;-65
2021/07/24 03:21:27;;;;;;;8.73;7.90;;;18.20;99.90;;;;;;5036656;28;20177;-65
2021/07/24 03:23:53;;;;;;;11.00;8.10;;;18.10;99.90;;;;;;5036378;28;20797;-65
2021/07/24 03:26:19;;;;;;;10.77;7.67;;;18.10;99.90;;;;;;5036615;28;20172;-66
2021/07/24 03:28:45;;;;;;;11.73;9.47;;;18.10;99.90;;;;;;5035877;28;20797;-65
2021/07/24 03:31:11;;;;;;;7.80;7.10;;;18.10;99.90;;;;;;5035607;28;20434;-64
2021/07/24 03:33:37;;;;;;;7.70;7.00;;;18.00;99.90;;;;;;5036308;28;20415;-65
2021/07/24 03:36:03;;;;;;;10.27;7.40;;;18.00;99.90;;;;;;5036147;28;20901;-64
2021/07/24 03:38:28;;;;;;;8.67;7.40;;;18.00;99.90;;;;;;5035792;28;20226;-64
2021/07/24 03:40:54;;;;;;;8.97;6.80;;;17.90;99.90;;;;;;5035992;28;20449;-64
2021/07/24 03:43:20;;;;;;;7.93;6.87;;;17.90;99.90;;;;;;5036045;28;20170;-65
2021/07/24 03:45:46;;;;;;;8.13;7.30;;;17.90;99.90;;;;;;5035642;28;20425;-64
2021/07/24 03:48:12;;;;;;;8.00;6.00;;;17.90;99.90;;;;;;5035325;28;20826;-65
2021/07/24 03:50:40;;;;;;;6.63;6.00;;;17.90;99.90;;;;;;5035937;28;20571;-65
2021/07/24 03:53:07;;;;;;;7.13;6.43;;;17.90;99.90;;;;;;5035625;28;20529;-64
2021/07/24 03:55:34;;;;;;;7.07;6.37;;;17.90;99.90;;;;;;5034506;28;20493;-65
2021/07/24 03:58:00;;;;;;;7.60;6.80;;;17.90;99.90;;;;;;5033865;28;20443;-65
2021/07/24 04:00:26;;;;;;;8.80;7.90;;;17.90;99.90;;;;;;5018673;28;20849;-65
2021/07/24 04:02:52;;;;;;;9.60;7.40;;;18.00;99.90;;;;;;5015650;28;20431;-65
2021/07/24 04:05:18;;;;;;;9.03;7.83;;;18.00;99.90;;;;;;5015615;28;20173;-65
2021/07/24 04:07:44;;;;;;;8.47;7.00;;;18.20;99.90;;;;;;5015259;28;20700;-65
2021/07/24 04:10:11;;;;;;;9.00;7.60;;;18.20;99.90;;;;;;5015779;28;20849;-65
2021/07/24 04:12:39;;;;;;;8.40;6.00;;;18.30;99.90;;;;;;5015712;28;20414;-65
2021/07/24 04:15:05;;;;;;;7.67;6.87;;;18.40;99.90;;;;;;5030887;28;20428;-65
2021/07/24 04:17:32;;;;;;;8.70;7.10;;;18.40;99.90;;;;;;5033555;28;20433;-64
2021/07/24 04:19:58;;;;;;;7.40;6.67;;;18.50;99.90;;;;;;5035350;28;20469;-64
2021/07/24 04:22:23;;;;;;;7.37;6.00;;;18.50;99.90;;;;;;5035454;28;20463;-65
2021/07/24 04:24:49;;;;;;;6.67;5.57;;;18.70;99.90;;;;;;5035212;28;20175;-65
2021/07/24 04:27:15;;;;;;;6.97;6.27;;;18.80;99.90;;;;;;5034856;28;20273;-66
2021/07/24 04:29:41;;;;;;;11.03;8.40;;;18.90;99.90;;;;;;5033121;28;20502;-65
2021/07/24 04:32:07;;;;;;;7.73;6.57;;;18.90;99.90;;;;;;5024434;28;20494;-65
2021/07/24 04:34:33;;;;;;;7.27;6.53;;;18.90;99.90;;;;;;5015188;28;20177;-65
2021/07/24 04:36:59;;;;;;;8.77;6.70;;;19.00;99.90;;;;;;5015030;28;20408;-65
2021/07/24 04:39:24;;;;;;;14.37;8.03;;;19.00;99.90;;;;;;5015034;28;20453;-66
2021/07/24 04:41:50;;;;;;;7.47;6.70;;;19.00;99.90;;;;;;5015239;28;20177;-66
2021/07/24 04:44:16;;;;;;;10.50;7.70;;;19.00;99.90;;;;;;5015057;28;20178;-64
2021/07/24 04:46:41;;;;;;;9.73;6.67;;;19.00;99.90;;;;;;5014552;28;20182;-64
2021/07/24 04:49:07;;;;;;;11.57;8.00;;;19.00;99.90;;;;;;5014816;28;20211;-64
2021/07/24 04:51:33;;;;;;;10.80;8.07;;;19.10;99.90;;;;;;5014989;28;20272;-64
2021/07/24 04:54:00;;;;;;;9.27;7.00;;;19.10;99.90;;;;;;5014782;28;20255;-64
2021/07/24 04:56:26;;;;;;;8.87;7.37;;;19.10;99.90;;;;;;5015010;28;20410;-65
2021/07/24 04:58:52;;;;;;;8.53;7.60;;;19.10;99.90;;;;;;5026130;28;20502;-65
2021/07/24 05:01:21;;;;;;;7.67;6.80;;;19.10;99.90;;;;;;5034758;28;20462;-65
2021/07/24 05:03:48;;;;;;;10.70;8.40;;;19.10;99.90;;;;;;5034379;28;20401;-65
2021/07/24 05:06:14;;;;;;;11.23;8.50;;;19.20;99.90;;;;;;5034013;28;20408;-65
2021/07/24 05:08:40;;;;;;;7.93;7.13;;;19.20;99.90;;;;;;5033917;28;20489;-65
2021/07/24 05:11:05;;;;;;;8.63;7.70;;;19.20;99.90;;;;;;5034439;28;20885;-65
2021/07/24 05:13:31;;;;;;;7.70;7.00;;;19.20;99.90;;;;;;5022542;28;20501;-65
2021/07/24 05:15:57;;;;;;;9.30;8.50;;;19.20;99.90;;;;;;5013208;28;20212;-64
2021/07/24 05:18:23;;;;;;;10.40;7.67;;;19.20;99.90;;;;;;5013966;28;20201;-64
2021/07/24 05:20:49;;;;;;;8.60;7.00;;;19.20;99.90;;;;;;5016292;28;20471;-65
2021/07/24 05:23:15;;;;;;;8.23;7.27;;;19.10;99.90;;;;;;5014586;28;20179;-64
2021/07/24 05:25:48;;;;;;;9.70;6.90;;;19.10;99.90;;;;;;5014282;28;20415;-65
2021/07/24 05:28:14;;;;;;;9.27;7.27;;;19.10;99.90;;;;;;5012731;28;20196;-65
2021/07/24 05:30:39;;;;;;;11.70;7.87;;;19.00;99.90;;;;;;5014253;28;20932;-66
2021/07/24 05:33:05;;;;;;;11.77;8.20;;;19.10;99.90;;;;;;5014298;28;20218;-65
2021/07/24 05:35:31;;;;;;;7.93;7.23;;;19.20;99.90;;;;;;5014138;28;20193;-66
2021/07/24 05:37:57;;;;;;;9.50;7.80;;;19.30;99.90;;;;;;5013761;28;20196;-64
2021/07/24 05:40:23;;;;;;;12.00;7.17;;;19.40;99.90;;;;;;5014091;28;20221;-64
2021/07/24 05:42:48;;;;;;;12.83;8.10;;;19.60;99.90;;;;;;5029846;28;20941;-64
2021/07/24 05:45:14;;;;;;;7.83;6.77;;;19.70;99.90;;;;;;5034038;28;20251;-64
2021/07/24 05:47:39;;;;;;;7.70;6.30;;;19.90;99.90;;;;;;5033376;28;20212;-64
2021/07/24 05:50:06;;;;;;;10.43;8.20;;;20.00;99.90;;;;;;5033921;28;20170;-63
2021/07/24 05:52:31;;;;;;;9.50;7.20;;;20.10;99.90;;;;;;5033578;28;20189;-66
2021/07/24 05:54:57;;;;;;;8.10;6.30;;;20.20;99.90;;;;;;5033642;28;20412;-65
2021/07/24 05:57:23;;;;;;;10.50;7.50;;;20.30;99.90;;;;;;5018262;28;20205;-65
2021/07/24 05:59:48;;;;;;;8.37;7.13;;;20.40;99.90;;;;;;5013821;28;20286;-65
2021/07/24 06:02:15;;;;;;;9.00;6.87;;;20.60;99.90;;;;;;5012510;28;20173;-65
2021/07/24 06:04:42;;;;;;;7.93;6.70;;;20.80;99.90;;;;;;5012384;28;20178;-65
2021/07/24 06:07:09;;;;;;;10.57;6.57;;;20.90;99.90;;;;;;5013378;28;20765;-65
2021/07/24 06:09:38;;;;;;;8.00;6.90;;;21.10;99.90;;;;;;5013735;28;20421;-66
2021/07/24 06:12:04;;;;;;;8.10;7.30;;;21.20;99.90;;;;;;5027606;28;20428;-66
2021/07/24 06:14:31;;;;;;;9.60;6.93;;;21.40;99.90;;;;;;5032409;28;20459;-69
2021/07/24 06:16:57;;;;;;;9.17;8.17;;;21.40;99.90;;;;;;5032570;28;20413;-65
2021/07/24 06:19:22;;;;;;;11.40;6.73;;;21.40;99.90;;;;;;5033492;28;20509;-68
2021/07/24 06:21:48;;;;;;;10.20;6.50;;;21.40;99.90;;;;;;5033546;28;20640;-65
2021/07/24 06:24:14;;;;;;;7.53;6.10;;;21.40;99.90;;;;;;5033442;28;20175;-65
2021/07/24 06:26:41;;;;;;;9.37;7.70;;;21.40;99.90;;;;;;5019676;28;20456;-64
2021/07/24 06:29:07;;;;;;;9.30;6.93;;;21.50;99.90;;;;;;5013377;28;20491;-66
2021/07/24 06:31:33;;;;;;;7.60;6.80;;;21.40;99.90;;;;;;5013465;28;20422;-67
2021/07/24 06:34:02;;;;;;;12.13;7.80;;;21.30;99.90;;;;;;5012280;28;20778;-65
2021/07/24 06:36:28;;;;;;;9.60;8.10;;;21.30;99.90;;;;;;5013552;28;20970;-65
2021/07/24 06:38:54;;;;;;;6.97;6.23;;;21.30;99.90;;;;;;5012738;28;20491;-66
2021/07/24 06:41:20;;;;;;;7.93;7.13;;;21.20;99.90;;;;;;5013263;28;20489;-64
2021/07/24 06:43:45;;;;;;;9.43;7.27;;;21.10;99.90;;;;;;5013608;28;20401;-65
2021/07/24 06:46:16;;;;;;;8.30;6.50;;;20.90;99.90;;;;;;5013611;28;20402;-64
2021/07/24 06:48:42;;;;;;;9.87;7.40;;;20.80;99.90;;;;;;5018886;28;20248;-65
2021/07/24 06:51:08;;;;;;;8.80;7.60;;;20.60;99.90;;;;;;5033226;28;20403;-64
2021/07/24 06:53:37;;;;;;;10.13;7.47;;;20.50;99.90;;;;;;5033144;28;20925;-66
2021/07/24 06:56:04;;;;;;;8.93;7.30;;;20.40;99.90;;;;;;5032511;28;20428;-64
2021/07/24 06:58:31;;;;;;;13.73;7.70;;;20.40;99.90;;;;;;5032521;28;20445;-66
2021/07/24 07:00:57;;;;;;;10.57;8.10;;;20.60;99.90;;;;;;5032954;28;20868;-64
2021/07/24 07:03:23;;;;;;;11.07;8.43;;;20.70;99.90;;;;;;5026843;28;20452;-64
2021/07/24 07:05:49;;;;;;;10.73;7.57;;;20.80;99.90;;;;;;5011926;28;20171;-64
2021/07/24 07:08:15;;;;;;;11.37;7.57;;;20.90;99.90;;;;;;5012559;28;20201;-65
2021/07/24 07:10:41;;;;;;;9.33;7.70;;;21.10;99.90;;;;;;5013469;28;20459;-65
2021/07/24 07:13:06;;;;;;;11.17;8.70;;;21.30;99.90;;;;;;5012976;28;20417;-65
2021/07/24 07:15:32;;;;;;;20.23;8.60;;;21.70;99.90;;;;;;5013092;28;20172;-65
2021/07/24 07:17:58;;;;;;;10.00;7.53;;;22.00;99.90;;;;;;5016710;28;20194;-64
2021/07/24 07:20:24;;;;;;;7.90;7.10;;;22.20;99.90;;;;;;5032892;28;20462;-64
2021/07/24 07:22:49;;;;;;;11.23;8.17;;;22.40;99.90;;;;;;5032649;28;20166;-66
2021/07/24 07:25:15;;;;;;;8.13;7.40;;;22.50;99.90;;;;;;5032642;28;20197;-64
2021/07/24 07:27:42;;;;;;;9.20;7.57;;;22.50;99.90;;;;;;5032753;28;20559;-65
2021/07/24 07:30:09;;;;;;;9.83;8.00;;;22.40;99.90;;;;;;5034619;28;20195;-64
2021/07/24 07:32:35;;;;;;;10.33;8.87;;;22.30;99.90;;;;;;5032389;28;20427;-65
2021/07/24 07:35:01;;;;;;;7.97;6.60;;;22.20;99.90;;;;;;5016443;28;20402;-65
2021/07/24 07:37:26;;;;;;;9.87;7.07;;;22.20;99.90;;;;;;5015886;28;20187;-66
2021/07/24 07:39:52;;;;;;;10.23;7.40;;;22.10;99.90;;;;;;5015968;28;20507;-65
2021/07/24 07:42:18;;;;;;;12.00;7.30;;;22.10;99.90;;;;;;5016258;28;20176;-64
2021/07/24 07:44:43;;;;;;;10.37;7.60;;;22.10;99.90;;;;;;5016232;28;20175;-65
2021/07/24 07:47:10;;;;;;;9.03;6.73;;;21.90;99.90;;;;;;5017524;28;20167;-66
2021/07/24 07:49:35;;;;;;;9.10;7.37;;;22.00;99.90;;;;;;5035812;28;20198;-64
2021/07/24 07:52:01;;;;;;;12.77;8.47;;;22.00;99.90;;;;;;5035943;28;20735;-64
2021/07/24 07:54:30;;;;;;;9.47;8.47;;;22.10;99.90;;;;;;5035820;28;20221;-65
2021/07/24 07:56:57;;;;;;;12.97;7.80;;;22.10;99.90;;;;;;5035467;28;20266;-66
2021/07/24 07:59:23;;;;;;;9.33;7.27;;;22.20;99.90;;;;;;5035442;28;20410;-65
2021/07/24 08:01:49;;;;;;;8.83;7.80;;;22.30;99.90;;;;;;5035946;28;20438;-66
2021/07/24 08:04:18;;;;;;;9.90;7.40;;;22.40;99.90;;;;;;5035982;28;20433;-64
2021/07/24 08:06:52;;;;;;;19.40;13.73;;;22.50;99.90;;;;;;5034211;28;20560;-66
2021/07/24 08:09:17;;;;;;;13.20;10.10;;;22.60;99.90;;;;;;5021325;28;20414;-65
2021/07/24 08:11:50;;;;;;;10.30;8.63;;;22.60;99.90;;;;;;5015732;28;20554;-66
2021/07/24 08:14:15;;;;;;;9.07;8.17;;;22.70;99.90;;;;;;5014770;28;20183;-64
2021/07/24 08:16:44;;;;;;;9.30;7.60;;;22.70;99.90;;;;;;5013902;28;20416;-65
2021/07/24 08:19:20;;;;;;;11.13;8.50;;;22.70;99.90;;;;;;5032134;28;20204;-66
2021/07/24 08:21:49;;;;;;;10.17;7.10;;;22.50;99.90;;;;;;5035894;28;20381;-65
2021/07/24 08:24:14;;;;;;;11.20;9.37;;;22.50;99.90;;;;;;5035154;28;20416;-66
2021/07/24 08:26:57;;;;;;;8.27;7.40;;;22.40;99.90;;;;;;5027133;28;20421;-65
2021/07/24 08:29:29;;;;;;;9.20;7.63;;;22.40;99.90;;;;;;5014262;28;20209;-66
2021/07/24 08:31:55;;;;;;;8.50;7.60;;;22.30;99.90;;;;;;5022399;28;20473;-66
2021/07/24 08:34:20;;;;;;;9.13;8.27;;;22.20;99.90;;;;;;5035625;28;20970;-64
2021/07/24 08:36:46;;;;;;;10.80;8.10;;;22.10;99.90;;;;;;5034837;28;20171;-65
2021/07/24 08:39:12;;;;;;;11.50;8.60;;;21.90;99.90;;;;;;5034271;28;20194;-65
2021/07/24 08:41:44;;;;;;;7.40;6.50;;;21.70;99.90;;;;;;5034725;28;20565;-65
2021/07/24 08:44:12;;;;;;;9.97;8.47;;;21.50;99.90;;;;;;5033397;28;20201;-64
2021/07/24 08:46:38;;;;;;;9.70;8.67;;;21.50;99.90;;;;;;5026088;28;20827;-65
2021/07/24 08:49:07;;;;;;;14.60;8.00;;;21.50;99.90;;;;;;5013693;28;20513;-65
2021/07/24 08:51:38;;;;;;;8.80;7.10;;;21.40;99.90;;;;;;5013622;28;20402;-66
2021/07/24 08:54:05;;;;;;;9.70;8.50;;;21.60;99.90;;;;;;5013853;28;20879;-64
2021/07/24 08:56:35;;;;;;;9.73;7.07;;;21.80;99.90;;;;;;5014770;28;20433;-65
2021/07/24 08:59:03;;;;;;;10.87;7.40;;;22.00;99.90;;;;;;5014833;28;20767;-65
2021/07/24 09:01:36;;;;;;;11.97;7.40;;;22.40;99.90;;;;;;5023368;28;20453;-65
2021/07/24 09:04:04;;;;;;;10.20;8.00;;;22.90;99.90;;;;;;5034590;28;20419;-64
2021/07/24 09:06:33;;;;;;;13.40;7.73;;;23.50;99.90;;;;;;5032942;28;20972;-65
2021/07/24 09:08:59;;;;;;;9.77;7.60;;;24.10;99.90;;;;;;5032968;28;20440;-64
2021/07/24 09:11:25;;;;;;;8.00;7.17;;;24.80;99.90;;;;;;5034645;28;20392;-65
2021/07/24 09:13:51;;;;;;;8.80;7.10;;;25.30;99.90;;;;;;5034404;28;20171;-65
2021/07/24 09:16:17;;;;;;;7.17;6.43;;;25.80;99.90;;;;;;5024539;28;20396;-65
2021/07/24 09:18:42;;;;;;;8.10;7.17;;;26.50;99.90;;;;;;5013958;28;20209;-65
2021/07/24 09:21:08;;;;;;;8.40;6.60;;;27.20;99.90;;;;;;5014206;28;20546;-65
2021/07/24 09:23:39;;;;;;;8.57;7.77;;;27.90;99.80;;;;;;5014147;28;20229;-65
2021/07/24 09:26:06;;;;;;;8.27;7.40;;;28.60;98.30;;;;;;5014339;28;20620;-65
2021/07/24 09:28:35;;;;;;;7.90;7.10;;;29.40;98.10;;;;;;5013944;28;20489;-65
2021/07/24 09:31:20;;;;;;;7.30;6.60;;;30.30;94.90;;;;;;5022716;28;20767;-65
2021/07/24 09:33:50;;;;;;;6.50;5.70;;;31.30;93.20;;;;;;5034021;28;20420;-64
2021/07/24 09:36:30;;;;;;;7.20;6.60;;;32.20;92.30;;;;;;5033903;28;21065;-64
2021/07/24 09:39:09;;;;;;;7.07;6.47;;;33.00;89.30;;;;;;5033742;28;20433;-65
2021/07/24 09:41:35;;;;;;;8.00;7.27;;;33.70;86.90;;;;;;5033858;28;20790;-65
2021/07/24 09:44:01;;;;;;;8.53;7.13;;;34.10;85.30;;;;;;5033785;28;20907;-65
2021/07/24 09:46:30;;;;;;;7.80;7.13;;;34.70;82.50;;;;;;5020040;28;20440;-65
2021/07/24 09:48:56;;;;;;;7.63;6.57;;;35.40;82.50;;;;;;5013688;28;20602;-65
2021/07/24 09:51:38;;;;;;;8.00;7.40;;;35.70;74.00;;;;;;5013799;28;20434;-65
2021/07/24 09:54:05;;;;;;;7.33;6.70;;;35.80;74.70;;;;;;5013901;28;20398;-64
2021/07/24 09:56:44;;;;;;;7.50;6.80;;;35.90;74.30;;;;;;5013713;28;20841;-66
2021/07/24 09:59:19;;;;;;;8.03;7.33;;;35.90;72.90;;;;;;5013582;28;20565;-65
2021/07/24 10:02:08;;;;;;;7.23;6.57;;;35.70;71.00;;;;;;5032527;28;20464;-65
2021/07/24 10:04:40;;;;;;;9.10;8.20;;;35.50;69.50;;;;;;5033136;28;20426;-65
2021/07/24 10:07:09;;;;;;;7.40;6.80;;;35.40;69.80;;;;;;5033527;28;20804;-67
2021/07/24 10:09:37;;;;;;;6.93;6.40;;;35.10;69.90;;;;;;5033414;28;20440;-65
2021/07/24 10:12:05;;;;;;;7.70;6.97;;;34.60;70.70;;;;;;5033270;28;20774;-65
2021/07/24 10:14:30;;;;;;;6.00;5.50;;;34.40;70.40;;;;;;5030808;28;20426;-65
2021/07/24 10:16:59;;;;;;;7.73;6.53;;;34.30;70.70;;;;;;5013439;28;20903;-65
2021/07/24 10:19:26;;;;;;;8.30;7.50;;;34.40;70.10;;;;;;5013468;28;20203;-65
2021/07/24 10:21:54;;;;;;;7.47;6.73;;;34.20;68.00;;;;;;5013535;28;20417;-65
2021/07/24 10:24:20;;;;;;;7.17;6.47;;;34.10;68.40;;;;;;5013612;28;20410;-65
2021/07/24 10:26:58;;;;;;;7.53;6.83;;;34.10;68.90;;;;;;5013252;28;20425;-65
2021/07/24 10:29:38;;;;;;;9.23;7.37;;;34.00;66.90;;;;;;5013184;28;20415;-65
2021/07/24 10:32:08;;;;;;;7.30;6.60;;;33.80;69.00;;;;;;5013614;28;20385;-65
2021/07/24 10:34:36;;;;;;;7.30;6.60;;;33.70;68.60;;;;;;5013499;28;20357;-66
2021/07/24 10:37:44;;;;;;;7.77;6.50;;;33.50;68.40;;;;;;5013140;28;20380;-66
2021/07/24 10:40:24;;;;;;;10.00;7.63;;;33.20;70.90;;;;;;5013562;28;20428;-66
2021/07/24 10:42:51;;;;;;;8.50;6.43;;;32.80;71.20;;;;;;5013436;28;20417;-66
2021/07/24 10:45:31;;;;;;;8.00;7.20;;;32.40;72.30;;;;;;5025782;28;20416;-66
2021/07/24 10:48:26;;;;;;;7.90;7.03;;;32.00;72.90;;;;;;5032713;28;20507;-66
2021/07/24 10:50:54;;;;;;;7.70;6.77;;;31.80;74.20;;;;;;5033137;28;20433;-65
2021/07/24 10:53:21;;;;;;;6.43;5.83;;;31.90;73.80;;;;;;5033027;28;20384;-65
2021/07/24 10:55:52;;;;;;;7.03;6.40;;;31.80;74.20;;;;;;5032759;28;20417;-65
2021/07/24 10:58:29;;;;;;;7.17;6.47;;;31.30;74.50;;;;;;5032491;28;20425;-65
2021/07/24 11:00:57;;;;;;;8.53;7.30;;;31.00;76.50;;;;;;5032880;28;20448;-65
2021/07/24 11:03:43;;;;;;;6.30;5.30;;;30.80;78.50;;;;;;5034618;28;20379;-65
2021/07/24 11:06:24;;;;;;;7.67;6.67;;;30.70;79.20;;;;;;5036796;28;20383;-66
2021/07/24 11:08:59;;;;;;;9.13;6.57;;;30.50;79.50;;;;;;5036209;28;20403;-65
2021/07/24 11:11:43;;;;;;;6.00;5.43;;;30.50;80.80;;;;;;5035157;28;20912;-65
2021/07/24 11:14:38;;;;;;;8.23;6.30;;;30.70;78.40;;;;;;5027309;28;20512;-66
2021/07/24 11:17:11;;;;;;;8.53;5.67;;;30.60;77.90;;;;;;5016339;28;20385;-65
2021/07/24 11:19:39;;;;;;;8.67;5.57;;;30.60;79.50;;;;;;5016621;28;20524;-65
2021/07/24 11:22:14;;;;;;;6.00;5.40;;;30.70;80.10;;;;;;5016847;28;20414;-65
2021/07/24 11:24:49;;;;;;;6.40;5.80;;;30.90;80.60;;;;;;5017120;28;20402;-64
2021/07/24 11:27:29;;;;;;;7.00;6.40;;;30.90;77.40;;;;;;5016325;28;20787;-65
2021/07/24 11:30:08;;;;;;;7.30;6.60;;;30.80;79.90;;;;;;5015129;28;20402;-64
2021/07/24 11:32:42;;;;;;;6.40;5.87;;;30.90;80.10;;;;;;5016550;28;20395;-65
2021/07/24 11:35:15;;;;;;;7.10;6.47;;;30.90;79.50;;;;;;5015191;28;20900;-65
2021/07/24 11:37:43;;;;;;;9.13;7.00;;;30.90;79.40;;;;;;5015893;28;20377;-64
2021/07/24 11:40:16;;;;;;;7.63;6.60;;;30.90;80.20;;;;;;5016446;28;20427;-66
2021/07/24 11:42:44;;;;;;;7.50;6.57;;;30.80;81.00;;;;;;5016240;28;20414;-66
2021/07/24 11:45:19;;;;;;;8.67;7.47;;;30.60;80.70;;;;;;5016381;28;20739;-65
2021/07/24 11:47:44;;;;;;;8.63;6.50;;;30.40;81.20;;;;;;5015921;28;20376;-65
2021/07/24 11:50:21;;;;;;;7.93;7.07;;;30.10;82.70;;;;;;5016313;28;20383;-65
2021/07/24 11:52:51;;;;;;;8.50;6.70;;;29.80;83.80;;;;;;5014715;28;20182;-65
2021/07/24 11:55:27;;;;;;;7.90;6.40;;;29.60;85.20;;;;;;5014918;28;20883;-65
2021/07/24 11:58:03;;;;;;;8.83;5.93;;;29.30;86.90;;;;;;5015551;28;20796;-65
2021/07/24 12:00:30;;;;;;;7.20;6.00;;;29.10;88.00;;;;;;5015943;28;20517;-66
2021/07/24 12:03:12;;;;;;;7.03;6.40;;;28.90;88.30;;;;;;5016036;28;20380;-65
2021/07/24 12:05:38;;;;;;;5.63;5.10;;;28.80;89.10;;;;;;5016054;28;20410;-66
2021/07/24 12:08:05;;;;;;;6.70;5.40;;;28.70;88.50;;;;;;5015303;28;20411;-64
2021/07/24 12:10:35;;;;;;;5.97;5.30;;;28.80;89.00;;;;;;5015759;28;20588;-66
2021/07/24 12:13:00;;;;;;;4.33;3.93;;;28.90;87.80;;;;;;5022030;28;20403;-66
2021/07/24 12:15:55;;;;;;;6.90;4.40;;;29.10;83.60;;;;;;5035341;28;20424;-66
2021/07/24 12:18:21;;;;;;;4.50;4.10;;;29.20;82.70;;;;;;5034903;28;20194;-65
2021/07/24 12:20:49;;;;;;;5.03;4.53;;;29.40;84.00;;;;;;5035439;28;20422;-66
2021/07/24 12:23:22;;;;;;;4.67;4.13;;;29.60;81.20;;;;;;5035198;28;20383;-66
2021/07/24 12:26:14;;;;;;;5.10;4.57;;;29.90;81.20;;;;;;5035507;28;20384;-65
2021/07/24 12:28:42;;;;;;;5.70;4.47;;;30.20;80.80;;;;;;5019866;28;20428;-66
2021/07/24 12:31:25;;;;;;;5.57;4.60;;;30.40;80.40;;;;;;5017101;28;20400;-65
2021/07/24 12:33:51;;;;;;;5.53;5.03;;;30.60;75.40;;;;;;5035339;28;20417;-65
2021/07/24 12:36:19;;;;;;;6.67;4.87;;;30.50;77.10;;;;;;5034955;28;20413;-65
2021/07/24 12:38:45;;;;;;;4.90;4.20;;;30.40;78.10;;;;;;5034714;28;20494;-65
2021/07/24 12:41:11;;;;;;;8.53;7.23;;;30.30;78.90;;;;;;5035037;28;21071;-65
2021/07/24 12:43:39;;;;;;;5.57;5.07;;;30.30;81.00;;;;;;5018806;28;20472;-66
2021/07/24 12:46:11;;;;;;;5.13;4.30;;;30.40;78.30;;;;;;5015271;28;20186;-65
2021/07/24 12:48:41;;;;;;;5.80;4.70;;;30.40;77.20;;;;;;5014601;28;20910;-65
2021/07/24 12:51:22;;;;;;;7.03;4.43;;;30.40;78.90;;;;;;5015065;28;20377;-64
2021/07/24 12:53:52;;;;;;;5.13;4.63;;;30.40;77.90;;;;;;5015003;28;20416;-64